Time;durP1;ratioP1;P1;durP2;ratioP2;P2;SDS_P1;SDS_P2;PMS_P1;PMS_P2;Temp;Humidity;BMP_temperature;BMP_pressure;BME280_temperature;BME280_humidity;BME280_pressure;Samples;Min_cycle;Max_cycle;Signal;HPM_P1;HPM_P2
2023/04/26 00:00:42;;;;;;;12.82;5.32;;;9.00;54.10;;;;;;5090551;27;114467;-82
2023/04/26 00:03:11;;;;;;;12.68;6.13;;;9.00;54.10;;;;;;5090276;27;115714;-82
2023/04/26 00:05:39;;;;;;;11.95;5.03;;;9.10;54.50;;;;;;5089060;27;114764;-83
2023/04/26 00:08:08;;;;;;;17.10;6.55;;;9.10;54.20;;;;;;5085358;27;116897;-82
2023/04/26 00:10:35;;;;;;;13.68;5.35;;;9.10;54.00;;;;;;5090525;27;115454;-82
2023/04/26 00:13:03;;;;;;;15.93;5.18;;;9.20;54.10;;;;;;5095079;27;114251;-83
2023/04/26 00:15:31;;;;;;;13.05;5.32;;;9.20;53.60;;;;;;5090355;27;114338;-82
2023/04/26 00:17:58;;;;;;;13.38;5.47;;;9.20;53.90;;;;;;5073435;27;116512;-82
2023/04/26 00:20:26;;;;;;;13.95;5.30;;;9.20;53.90;;;;;;5091168;27;114510;-81
2023/04/26 00:22:53;;;;;;;12.90;5.65;;;9.20;53.80;;;;;;5088447;27;114162;-83
2023/04/26 00:25:22;;;;;;;14.18;5.57;;;9.20;53.90;;;;;;5088292;27;114937;-82
2023/04/26 00:27:51;;;;;;;11.45;4.80;;;9.20;53.70;;;;;;5085672;27;115191;-82
2023/04/26 00:30:18;;;;;;;11.90;5.00;;;9.20;53.70;;;;;;5083858;27;114420;-83
2023/04/26 00:32:46;;;;;;;11.05;5.13;;;9.20;53.60;;;;;;5071506;27;116223;-83
2023/04/26 00:35:13;;;;;;;11.05;4.90;;;9.20;53.40;;;;;;5066776;27;118237;-83
2023/04/26 00:37:41;;;;;;;11.38;4.50;;;9.20;53.20;;;;;;5085068;27;114807;-83
2023/04/26 00:40:09;;;;;;;15.27;5.60;;;9.20;53.20;;;;;;5085823;27;114516;-83
2023/04/26 00:42:37;;;;;;;13.43;4.60;;;9.20;53.30;;;;;;5085821;27;114591;-83
2023/04/26 00:45:06;;;;;;;14.45;6.00;;;9.20;53.10;;;;;;5062445;27;115403;-82
2023/04/26 00:47:34;;;;;;;14.02;5.13;;;9.20;52.70;;;;;;5036011;27;114703;-82
2023/04/26 00:50:04;;;;;;;11.43;5.35;;;9.20;52.60;;;;;;5084235;27;114695;-82
2023/04/26 00:52:31;;;;;;;10.93;4.63;;;9.20;52.70;;;;;;5050106;27;114300;-83
2023/04/26 00:54:58;;;;;;;14.45;5.30;;;9.20;52.50;;;;;;5084607;27;116312;-83
2023/04/26 00:57:26;;;;;;;10.23;4.65;;;9.10;52.50;;;;;;5066019;27;114653;-83
2023/04/26 00:59:54;;;;;;;11.38;5.35;;;9.10;52.70;;;;;;5084433;27;115426;-83
2023/04/26 01:02:21;;;;;;;12.48;5.07;;;9.10;52.40;;;;;;5084533;27;114587;-83
2023/04/26 01:04:53;;;;;;;14.95;5.60;;;9.10;52.40;;;;;;5064756;27;115600;-84
2023/04/26 01:07:20;;;;;;;12.13;4.80;;;9.10;52.50;;;;;;5084147;27;114985;-84
2023/04/26 01:09:47;;;;;;;10.82;4.97;;;9.10;52.70;;;;;;5083345;27;114405;-83
2023/04/26 01:12:14;;;;;;;16.77;5.53;;;9.00;52.30;;;;;;5066469;27;114508;-83
2023/04/26 01:14:42;;;;;;;14.20;4.80;;;9.00;52.40;;;;;;5051200;27;115825;-83
2023/04/26 01:17:09;;;;;;;14.80;5.22;;;9.10;52.40;;;;;;5047015;27;114761;-83
2023/04/26 01:19:48;;;;;;;10.90;4.95;;;9.10;52.40;;;;;;5066509;27;114309;-82
2023/04/26 01:22:16;;;;;;;13.60;5.72;;;9.10;52.00;;;;;;5064048;27;114666;-83
2023/04/26 01:24:49;;;;;;;11.13;5.03;;;9.00;52.30;;;;;;5032697;27;114933;-83
2023/04/26 01:27:16;;;;;;;11.57;5.28;;;9.00;52.40;;;;;;5046088;27;114552;-82
2023/04/26 01:29:44;;;;;;;16.92;5.20;;;9.10;52.20;;;;;;5075661;27;114469;-83
2023/04/26 01:32:12;;;;;;;10.60;5.05;;;9.00;52.30;;;;;;5086077;27;117956;-82
2023/04/26 01:34:39;;;;;;;9.65;4.57;;;9.00;52.00;;;;;;5068276;27;115022;-83
2023/04/26 01:37:06;;;;;;;11.10;4.88;;;8.90;52.00;;;;;;5086095;27;114947;-83
2023/04/26 01:39:35;;;;;;;12.52;5.07;;;8.90;52.10;;;;;;5088368;27;114273;-83
2023/04/26 01:42:03;;;;;;;12.25;5.03;;;8.90;52.10;;;;;;5087412;27;114373;-83
2023/04/26 01:44:31;;;;;;;12.05;4.82;;;8.90;52.30;;;;;;5084797;27;114825;-83
2023/04/26 01:47:00;;;;;;;10.35;4.72;;;8.80;52.40;;;;;;5083553;27;115236;-83
2023/04/26 01:49:28;;;;;;;13.10;5.10;;;8.80;52.00;;;;;;5084089;27;114471;-83
2023/04/26 01:51:55;;;;;;;11.82;4.93;;;8.80;51.90;;;;;;5067310;27;114521;-82
2023/04/26 01:54:23;;;;;;;10.63;4.85;;;8.70;52.00;;;;;;5084429;27;115085;-81
2023/04/26 01:56:52;;;;;;;13.35;4.97;;;8.70;52.10;;;;;;5049583;27;118191;-81
2023/04/26 01:59:19;;;;;;;14.15;5.28;;;8.70;52.20;;;;;;5066745;27;116885;-81
2023/04/26 02:01:46;;;;;;;15.98;6.45;;;8.70;52.00;;;;;;5085458;27;114350;-82
2023/04/26 02:04:13;;;;;;;12.88;5.60;;;8.60;52.00;;;;;;5082864;27;115058;-81
2023/04/26 02:06:41;;;;;;;8.65;4.82;;;8.60;52.10;;;;;;5084424;27;114651;-82
2023/04/26 02:09:08;;;;;;;16.45;5.18;;;8.60;51.80;;;;;;5084031;27;114469;-82
2023/04/26 02:11:39;;;;;;;13.38;5.28;;;8.50;51.70;;;;;;5054896;27;115120;-81
2023/04/26 02:14:06;;;;;;;12.05;5.43;;;8.50;52.00;;;;;;5066001;27;115521;-82
2023/04/26 02:16:33;;;;;;;11.50;5.13;;;8.30;51.70;;;;;;5049258;27;115215;-81
2023/04/26 02:19:01;;;;;;;13.68;5.68;;;8.30;51.90;;;;;;5066319;27;117079;-82
2023/04/26 02:21:29;;;;;;;9.10;5.18;;;8.20;51.80;;;;;;5030647;27;114478;-82
2023/04/26 02:23:57;;;;;;;13.02;5.18;;;8.20;51.90;;;;;;5063092;27;115068;-81
2023/04/26 02:26:25;;;;;;;12.05;5.25;;;8.10;52.20;;;;;;5043112;27;114691;-81
2023/04/26 02:28:52;;;;;;;15.60;6.70;;;8.10;52.40;;;;;;5080477;27;114593;-81
2023/04/26 02:31:20;;;;;;;17.13;6.80;;;8.00;52.50;;;;;;5028867;27;114531;-81
2023/04/26 02:33:49;;;;;;;12.85;5.53;;;8.00;52.40;;;;;;5043055;27;114913;-81
2023/04/26 02:36:16;;;;;;;13.90;5.68;;;8.00;52.30;;;;;;5058692;27;114673;-81
2023/04/26 02:38:43;;;;;;;13.68;5.18;;;8.00;52.20;;;;;;5047362;27;114366;-81
2023/04/26 02:41:10;;;;;;;15.43;5.90;;;7.90;52.40;;;;;;5051026;27;114399;-81
2023/04/26 02:43:37;;;;;;;13.30;5.35;;;7.90;52.40;;;;;;5054555;27;114327;-82
2023/04/26 02:46:08;;;;;;;12.05;4.95;;;7.90;52.40;;;;;;5052249;27;114688;-82
2023/04/26 02:48:35;;;;;;;15.88;6.22;;;7.80;52.70;;;;;;5068835;27;114648;-82
2023/04/26 02:51:03;;;;;;;13.70;5.20;;;7.80;52.70;;;;;;5088398;27;114556;-83
2023/04/26 02:53:30;;;;;;;16.52;6.30;;;7.70;52.70;;;;;;5087109;27;115421;-82
2023/04/26 02:56:00;;;;;;;13.52;5.55;;;7.70;52.60;;;;;;5086451;27;114387;-83
2023/04/26 02:58:28;;;;;;;14.30;6.28;;;7.70;52.60;;;;;;5080620;27;115715;-82
2023/04/26 03:00:57;;;;;;;18.20;6.18;;;7.70;52.60;;;;;;5087196;27;114552;-82
2023/04/26 03:03:27;;;;;;;17.58;6.97;;;7.60;52.80;;;;;;5087079;27;115136;-81
2023/04/26 03:05:55;;;;;;;21.52;8.32;;;7.60;52.90;;;;;;5087564;27;115471;-82
2023/04/26 03:08:23;;;;;;;18.00;6.93;;;7.50;52.90;;;;;;5069885;27;114650;-82
2023/04/26 03:10:50;;;;;;;19.25;7.20;;;7.50;53.10;;;;;;5070370;27;114494;-82
2023/04/26 03:13:17;;;;;;;14.57;6.07;;;7.40;53.20;;;;;;5049722;27;115359;-82
2023/04/26 03:15:45;;;;;;;15.95;6.47;;;7.40;53.20;;;;;;5085547;27;114714;-82
2023/04/26 03:18:12;;;;;;;13.27;5.95;;;7.30;53.60;;;;;;5069782;27;114584;-82
2023/04/26 03:20:40;;;;;;;11.50;5.20;;;7.30;53.70;;;;;;5086463;27;114664;-83
2023/04/26 03:23:08;;;;;;;11.63;4.78;;;7.20;53.60;;;;;;5068959;27;117841;-84
2023/04/26 03:25:36;;;;;;;11.75;6.07;;;7.20;53.40;;;;;;5055432;27;116483;-84
2023/04/26 03:28:03;;;;;;;16.38;5.57;;;7.20;53.70;;;;;;5047805;27;114264;-82
2023/04/26 03:30:31;;;;;;;11.80;5.10;;;7.20;53.30;;;;;;5031287;27;114522;-83
2023/04/26 03:32:58;;;;;;;9.77;5.00;;;7.20;53.60;;;;;;5053285;27;115518;-82
2023/04/26 03:35:25;;;;;;;14.07;5.32;;;7.10;54.00;;;;;;5066468;27;115135;-81
2023/04/26 03:37:52;;;;;;;12.25;5.40;;;7.10;53.90;;;;;;5048672;27;114663;-83
2023/04/26 03:40:22;;;;;;;11.90;5.20;;;7.10;53.90;;;;;;5047807;27;114617;-82
2023/04/26 03:42:50;;;;;;;14.95;6.35;;;7.10;53.70;;;;;;5047461;27;115084;-81
2023/04/26 03:45:17;;;;;;;13.55;6.30;;;7.10;53.70;;;;;;5100005;27;115436;-82
2023/04/26 03:47:45;;;;;;;15.07;6.65;;;7.10;53.70;;;;;;5069676;27;114485;-82
2023/04/26 03:50:12;;;;;;;13.25;6.05;;;7.10;53.50;;;;;;5086190;27;114421;-83
2023/04/26 03:52:39;;;;;;;12.10;6.15;;;7.00;53.70;;;;;;5066989;27;116390;-83
2023/04/26 03:55:08;;;;;;;15.55;7.95;;;7.00;53.80;;;;;;5029473;27;116358;-82
2023/04/26 03:57:36;;;;;;;15.50;6.15;;;7.00;53.60;;;;;;5033490;27;114549;-81
2023/04/26 04:00:12;;;;;;;10.82;5.63;;;7.00;53.80;;;;;;5033553;27;114386;-81
2023/04/26 04:02:43;;;;;;;13.38;5.53;;;7.00;53.90;;;;;;5067185;27;117040;-82
2023/04/26 04:05:16;;;;;;;14.73;6.23;;;7.10;53.90;;;;;;5029798;27;114631;-82
2023/04/26 04:07:44;;;;;;;10.05;5.13;;;7.20;54.10;;;;;;5046029;27;115347;-82
2023/04/26 04:10:11;;;;;;;11.70;5.47;;;7.30;54.10;;;;;;5049334;27;114320;-81
2023/04/26 04:12:39;;;;;;;11.25;5.15;;;7.50;53.80;;;;;;5054283;27;114925;-82
2023/04/26 04:15:07;;;;;;;9.57;4.80;;;7.60;53.50;;;;;;5048217;27;114678;-81
2023/04/26 04:17:36;;;;;;;14.50;4.80;;;7.70;53.30;;;;;;5084119;27;114743;-81
2023/04/26 04:20:06;;;;;;;11.02;5.43;;;7.90;53.00;;;;;;5067969;27;114578;-82
2023/04/26 04:22:33;;;;;;;11.80;5.22;;;8.10;52.60;;;;;;5028702;27;116084;-82
2023/04/26 04:25:00;;;;;;;17.95;7.22;;;8.20;52.40;;;;;;5065811;27;114566;-83
2023/04/26 04:27:30;;;;;;;10.48;5.15;;;8.50;51.90;;;;;;5014850;27;115447;-84
2023/04/26 04:29:58;;;;;;;17.70;6.30;;;8.70;51.40;;;;;;5063908;27;114275;-82
2023/04/26 04:32:26;;;;;;;12.02;5.40;;;8.70;51.30;;;;;;5047346;27;114903;-83
2023/04/26 04:34:55;;;;;;;9.90;4.78;;;8.90;50.90;;;;;;5047388;27;114532;-83
2023/04/26 04:37:24;;;;;;;10.65;5.47;;;9.10;50.30;;;;;;5043711;27;114562;-82
2023/04/26 04:39:54;;;;;;;16.65;5.90;;;9.20;49.80;;;;;;5043176;27;114536;-83
2023/04/26 04:42:22;;;;;;;15.13;7.40;;;9.30;49.60;;;;;;5048436;27;115102;-83
2023/04/26 04:44:49;;;;;;;19.55;6.30;;;9.50;49.80;;;;;;5069857;27;114656;-81
2023/04/26 04:47:19;;;;;;;16.27;6.15;;;9.60;49.00;;;;;;5031605;27;114375;-81
2023/04/26 04:49:46;;;;;;;17.05;6.25;;;9.70;49.10;;;;;;5088155;27;114496;-81
2023/04/26 04:52:13;;;;;;;16.08;5.68;;;9.80;48.50;;;;;;5069832;27;116966;-81
2023/04/26 04:54:44;;;;;;;16.25;5.85;;;10.00;48.00;;;;;;5087844;27;117940;-81
2023/04/26 04:57:12;;;;;;;11.73;5.32;;;10.10;48.70;;;;;;5077877;27;114585;-81
2023/04/26 04:59:41;;;;;;;13.93;4.90;;;10.20;48.40;;;;;;5042672;27;114551;-84
2023/04/26 05:02:08;;;;;;;11.05;3.83;;;10.40;47.50;;;;;;5053491;27;115228;-84
2023/04/26 05:04:36;;;;;;;13.10;4.80;;;10.50;47.00;;;;;;5045590;27;114962;-82
2023/04/26 05:07:05;;;;;;;12.02;4.38;;;10.60;46.20;;;;;;5031878;27;114621;-81
2023/04/26 05:09:34;;;;;;;9.35;4.10;;;10.70;46.20;;;;;;5045462;27;116555;-81
2023/04/26 05:12:02;;;;;;;13.48;4.13;;;10.80;45.50;;;;;;5070333;27;114906;-81
2023/04/26 05:14:30;;;;;;;9.13;3.80;;;10.90;45.00;;;;;;5020414;27;119225;-83
2023/04/26 05:16:57;;;;;;;9.63;4.60;;;11.00;44.90;;;;;;5082109;27;114358;-84
2023/04/26 05:19:25;;;;;;;9.20;3.95;;;11.20;44.70;;;;;;5065730;27;114641;-83
2023/04/26 05:21:52;;;;;;;9.38;3.75;;;11.20;43.50;;;;;;5050449;27;114596;-82
2023/04/26 05:24:20;;;;;;;6.90;3.45;;;11.20;43.80;;;;;;5037973;27;116977;-82
2023/04/26 05:26:47;;;;;;;11.15;3.95;;;11.20;43.60;;;;;;5048517;27;114375;-83
2023/04/26 05:29:20;;;;;;;8.40;3.72;;;11.30;43.10;;;;;;5055239;27;114234;-84
2023/04/26 05:32:01;;;;;;;11.45;4.63;;;11.30;42.20;;;;;;5053458;27;115048;-82
2023/04/26 05:34:49;;;;;;;12.23;3.65;;;11.30;42.50;;;;;;5063183;27;116930;-82
2023/04/26 05:37:17;;;;;;;9.02;3.40;;;11.40;42.20;;;;;;5049586;27;114683;-84
2023/04/26 05:39:44;;;;;;;10.48;3.88;;;11.50;41.70;;;;;;5054142;27;114769;-83
2023/04/26 05:42:14;;;;;;;7.55;3.25;;;11.50;41.90;;;;;;5066537;27;115784;-82
2023/04/26 05:44:44;;;;;;;10.70;3.88;;;11.70;41.80;;;;;;5054957;27;115409;-82
2023/04/26 05:47:11;;;;;;;8.15;3.22;;;11.80;42.00;;;;;;5050284;27;114626;-82
2023/04/26 05:49:38;;;;;;;10.15;3.85;;;11.90;41.60;;;;;;5079843;27;114769;-82
2023/04/26 05:52:06;;;;;;;11.02;3.83;;;12.10;40.70;;;;;;5070862;27;115182;-82
2023/04/26 05:54:33;;;;;;;10.35;3.67;;;12.20;40.70;;;;;;5081531;27;117383;-83
2023/04/26 05:57:01;;;;;;;7.22;3.35;;;12.40;40.00;;;;;;5025057;27;114589;-83
2023/04/26 05:59:31;;;;;;;9.20;3.40;;;12.50;39.80;;;;;;5067934;27;114360;-83
2023/04/26 06:01:59;;;;;;;8.52;3.80;;;12.50;39.90;;;;;;5053059;27;117672;-83
2023/04/26 06:04:26;;;;;;;11.70;4.22;;;12.50;39.40;;;;;;5066507;27;115283;-84
2023/04/26 06:07:07;;;;;;;10.30;3.78;;;12.60;39.90;;;;;;5057932;27;114693;-82
2023/04/26 06:09:35;;;;;;;12.18;4.20;;;12.60;39.10;;;;;;5062403;27;114801;-84
2023/04/26 06:12:04;;;;;;;10.82;4.10;;;12.60;39.20;;;;;;5081718;27;117245;-84
2023/04/26 06:14:35;;;;;;;9.90;4.43;;;12.60;39.20;;;;;;5085391;27;116415;-82
2023/04/26 06:17:08;;;;;;;9.32;4.03;;;12.60;39.10;;;;;;5038621;27;114513;-83
2023/04/26 06:19:36;;;;;;;9.50;3.65;;;12.60;38.90;;;;;;5053417;27;114306;-82
2023/04/26 06:22:03;;;;;;;10.43;3.83;;;12.60;38.60;;;;;;5051981;27;115208;-83
2023/04/26 06:24:30;;;;;;;8.85;3.40;;;12.60;39.20;;;;;;5045264;27;114975;-83
2023/04/26 06:26:59;;;;;;;9.88;4.00;;;12.70;39.20;;;;;;5060852;27;116657;-82
2023/04/26 06:29:29;;;;;;;13.35;4.15;;;12.90;38.70;;;;;;5065696;27;114338;-82
2023/04/26 06:31:56;;;;;;;8.05;3.35;;;13.10;39.20;;;;;;5071866;27;114963;-84
2023/04/26 06:34:25;;;;;;;8.85;4.47;;;13.30;38.70;;;;;;5077491;27;114727;-82
2023/04/26 06:36:52;;;;;;;8.65;3.63;;;13.40;38.80;;;;;;5064558;27;114603;-83
2023/04/26 06:39:22;;;;;;;10.88;4.22;;;13.60;38.20;;;;;;5058090;27;114675;-84
2023/04/26 06:41:49;;;;;;;8.50;4.30;;;13.60;38.00;;;;;;5047054;27;114828;-82
2023/04/26 06:44:26;;;;;;;10.02;3.88;;;13.60;38.10;;;;;;5059661;27;114600;-83
2023/04/26 06:47:00;;;;;;;;;;;13.50;38.80;;;;;;5032543;27;114539;-82
2023/04/26 06:49:27;;;;;;;10.70;5.03;;;13.50;39.60;;;;;;5046038;27;114274;-83
2023/04/26 06:51:55;;;;;;;10.73;3.92;;;13.50;39.00;;;;;;5046033;27;118287;-83
2023/04/26 06:54:27;;;;;;;8.23;4.25;;;13.40;38.90;;;;;;5064426;27;114690;-83
2023/04/26 06:56:56;;;;;;;10.77;5.53;;;13.30;38.20;;;;;;5051432;27;114378;-85
2023/04/26 06:59:27;;;;;;;9.80;4.70;;;13.00;38.50;;;;;;5095652;27;114367;-83
2023/04/26 07:01:55;;;;;;;10.80;4.80;;;12.80;38.90;;;;;;5092622;27;115216;-83
2023/04/26 07:04:22;;;;;;;9.77;4.07;;;12.80;39.60;;;;;;5072190;27;115823;-82
2023/04/26 07:06:51;;;;;;;7.45;4.32;;;12.90;39.60;;;;;;5074651;27;114691;-83
2023/04/26 07:09:18;;;;;;;8.10;3.95;;;13.00;39.50;;;;;;5067279;27;114535;-82
2023/04/26 07:11:46;;;;;;;11.20;4.20;;;13.10;39.40;;;;;;5047051;27;115127;-82
2023/04/26 07:14:13;;;;;;;9.98;3.83;;;13.10;39.50;;;;;;5066378;27;114810;-81
2023/04/26 07:16:40;;;;;;;9.05;3.28;;;13.10;39.30;;;;;;5033131;27;114454;-82
2023/04/26 07:19:09;;;;;;;11.23;3.70;;;13.00;39.20;;;;;;5050424;27;114601;-82
2023/04/26 07:21:36;;;;;;;9.55;3.22;;;12.90;39.20;;;;;;5069208;27;114953;-83
2023/04/26 07:24:05;;;;;;;8.85;3.28;;;12.80;39.30;;;;;;5069609;27;117523;-83
2023/04/26 07:26:34;;;;;;;9.10;4.18;;;12.70;39.40;;;;;;5089350;27;114509;-83
2023/04/26 07:29:01;;;;;;;7.57;3.35;;;12.80;39.00;;;;;;5045345;27;114604;-82
2023/04/26 07:31:30;;;;;;;7.53;3.13;;;12.80;39.50;;;;;;5048420;27;115438;-82
2023/04/26 07:33:59;;;;;;;9.45;3.50;;;13.00;39.30;;;;;;5084260;27;115658;-82
2023/04/26 07:36:26;;;;;;;6.85;3.08;;;13.20;39.10;;;;;;5068132;27;114319;-81
2023/04/26 07:38:54;;;;;;;11.05;4.10;;;13.20;38.50;;;;;;5077986;27;114665;-83
2023/04/26 07:41:24;;;;;;;8.00;3.60;;;13.10;38.50;;;;;;5085300;27;116503;-82
2023/04/26 07:43:51;;;;;;;8.95;3.60;;;12.90;38.50;;;;;;5076045;27;118567;-81
2023/04/26 07:46:18;;;;;;;12.70;3.72;;;12.70;38.70;;;;;;5069148;27;114775;-82
2023/04/26 07:48:46;;;;;;;7.72;3.83;;;12.60;38.80;;;;;;5050369;27;114646;-83
2023/04/26 07:51:13;;;;;;;8.52;3.60;;;12.30;39.30;;;;;;5068497;27;115777;-83
2023/04/26 07:53:40;;;;;;;9.75;3.38;;;12.20;39.50;;;;;;5049007;27;114759;-83
2023/04/26 07:56:08;;;;;;;8.30;3.20;;;12.10;39.80;;;;;;5052459;27;114657;-83
2023/04/26 07:58:36;;;;;;;7.35;3.53;;;12.20;39.80;;;;;;5051553;27;114731;-83
2023/04/26 08:01:04;;;;;;;7.57;3.20;;;12.40;39.50;;;;;;5057448;27;116144;-80
2023/04/26 08:03:32;;;;;;;11.52;3.90;;;12.30;39.20;;;;;;5069380;27;115655;-81
2023/04/26 08:06:00;;;;;;;8.85;3.15;;;12.10;39.90;;;;;;5071380;27;114430;-82
2023/04/26 08:08:28;;;;;;;7.28;3.03;;;12.00;40.20;;;;;;5072463;27;114226;-82
2023/04/26 08:10:55;;;;;;;6.95;3.13;;;11.90;40.90;;;;;;5077140;27;115874;-81
2023/04/26 08:13:22;;;;;;;8.65;3.60;;;11.80;41.50;;;;;;5092291;27;114736;-82
2023/04/26 08:15:53;;;;;;;7.93;3.17;;;11.70;41.60;;;;;;5056268;27;114811;-82
2023/04/26 08:18:21;;;;;;;7.22;3.58;;;11.60;41.90;;;;;;5056437;27;114338;-83
2023/04/26 08:20:49;;;;;;;6.97;3.58;;;11.50;41.80;;;;;;5056136;27;114986;-81
2023/04/26 08:23:18;;;;;;;10.13;3.38;;;11.30;41.90;;;;;;5087450;27;116838;-81
2023/04/26 08:25:45;;;;;;;6.72;3.63;;;11.40;42.00;;;;;;5094597;27;114429;-82
2023/04/26 08:28:15;;;;;;;9.05;3.78;;;11.50;41.80;;;;;;5059123;27;114884;-81
2023/04/26 08:30:42;;;;;;;23.85;13.02;;;11.70;41.80;;;;;;5069822;27;115252;-81
2023/04/26 08:33:09;;;;;;;7.70;3.10;;;11.90;41.40;;;;;;5036197;27;117194;-82
2023/04/26 08:35:39;;;;;;;5.43;2.92;;;12.20;40.80;;;;;;5057065;27;114276;-81
2023/04/26 08:38:07;;;;;;;7.72;3.65;;;12.20;40.60;;;;;;5072024;27;114275;-83
2023/04/26 08:40:35;;;;;;;9.40;2.85;;;12.20;39.90;;;;;;5051360;27;115520;-82
2023/04/26 08:43:02;;;;;;;8.15;3.13;;;12.20;39.50;;;;;;5032872;27;115937;-83
2023/04/26 08:45:30;;;;;;;6.78;2.92;;;12.20;39.00;;;;;;5072442;27;114493;-82
2023/04/26 08:48:06;;;;;;;6.38;2.90;;;12.10;39.20;;;;;;5055721;27;114751;-81
2023/04/26 08:50:34;;;;;;;5.90;3.05;;;12.10;39.20;;;;;;5070142;27;117892;-81
2023/04/26 08:53:03;;;;;;;7.50;2.97;;;12.00;39.10;;;;;;5057756;27;117482;-83
2023/04/26 08:55:30;;;;;;;9.13;3.17;;;12.00;39.30;;;;;;5071000;27;114238;-81
2023/04/26 08:57:57;;;;;;;11.85;3.45;;;11.90;37.80;;;;;;5051907;27;114608;-82
2023/04/26 09:00:26;;;;;;;10.27;3.50;;;11.90;38.20;;;;;;5046752;27;119080;-80
2023/04/26 09:02:54;;;;;;;7.38;2.55;;;12.00;38.80;;;;;;5051558;27;118068;-82
2023/04/26 09:05:23;;;;;;;7.13;2.47;;;12.10;38.00;;;;;;5069087;27;114989;-82
2023/04/26 09:07:55;;;;;;;8.82;2.33;;;12.20;37.20;;;;;;5051969;27;114699;-82
2023/04/26 09:10:22;;;;;;;6.95;1.98;;;12.30;37.40;;;;;;5057104;27;114366;-82
2023/04/26 09:12:53;;;;;;;6.15;2.70;;;12.40;37.00;;;;;;5032200;27;116028;-80
2023/04/26 09:15:21;;;;;;;6.03;2.47;;;12.60;37.30;;;;;;5069255;27;114504;-81
2023/04/26 09:17:50;;;;;;;6.63;2.47;;;12.80;37.00;;;;;;5069521;27;114407;-81
2023/04/26 09:20:20;;;;;;;6.75;2.40;;;12.70;36.30;;;;;;5050953;27;115011;-82
2023/04/26 09:22:48;;;;;;;6.55;2.33;;;12.60;35.70;;;;;;5048939;27;114981;-82
2023/04/26 09:25:17;;;;;;;12.20;2.42;;;12.50;35.00;;;;;;5069566;27;114434;-83
2023/04/26 09:27:44;;;;;;;6.65;2.10;;;12.50;35.40;;;;;;5068656;27;114417;-82
2023/04/26 09:30:16;;;;;;;6.25;2.00;;;12.60;35.60;;;;;;5059794;27;115948;-81
2023/04/26 09:32:44;;;;;;;8.85;1.73;;;12.70;35.00;;;;;;5055786;27;114654;-82
2023/04/26 09:35:24;;;;;;;6.03;2.15;;;12.70;35.30;;;;;;5052096;27;114816;-82
2023/04/26 09:38:05;;;;;;;5.43;2.30;;;12.90;35.20;;;;;;5068164;27;114404;-82
2023/04/26 09:40:45;;;;;;;5.93;2.50;;;12.90;35.20;;;;;;5041304;27;114995;-82
2023/04/26 09:43:13;;;;;;;4.85;2.03;;;13.00;34.60;;;;;;5068781;27;115252;-82
2023/04/26 09:45:51;;;;;;;8.30;2.17;;;13.10;34.80;;;;;;5048723;27;114349;-82
2023/04/26 09:48:21;;;;;;;4.43;2.05;;;13.20;34.90;;;;;;5069027;27;114658;-82
2023/04/26 09:51:28;;;;;;;5.60;2.03;;;13.30;34.50;;;;;;5049803;27;115560;-82
2023/04/26 09:54:05;;;;;;;3.58;1.52;;;13.30;34.10;;;;;;5051008;27;114767;-82
2023/04/26 09:56:40;;;;;;;11.10;2.85;;;13.30;33.00;;;;;;5085179;27;114263;-83
2023/04/26 09:59:10;;;;;;;8.98;2.80;;;13.20;33.10;;;;;;5066036;27;114446;-82
2023/04/26 10:01:51;;;;;;;7.35;2.50;;;12.80;33.90;;;;;;5054453;27;116315;-83
2023/04/26 10:04:19;;;;;;;7.13;2.90;;;12.40;34.80;;;;;;5084679;27;114618;-83
2023/04/26 10:07:20;;;;;;;5.35;2.20;;;12.10;34.90;;;;;;5078065;27;114571;-82
2023/04/26 10:09:58;;;;;;;5.28;2.03;;;11.90;34.00;;;;;;5072408;27;114545;-82
2023/04/26 10:12:32;;;;;;;6.10;2.50;;;11.80;34.50;;;;;;5087260;27;114922;-82
2023/04/26 10:15:08;;;;;;;7.30;2.03;;;11.80;35.10;;;;;;5035436;27;117900;-82
2023/04/26 10:18:05;;;;;;;6.70;2.10;;;11.80;34.70;;;;;;5035289;27;114370;-81
2023/04/26 10:20:47;;;;;;;7.68;1.83;;;11.70;34.40;;;;;;5045716;27;116385;-83
2023/04/26 10:23:57;;;;;;;6.60;1.50;;;11.40;34.30;;;;;;5021416;28;116186;-82
2023/04/26 10:26:53;;;;;;;6.35;2.05;;;11.40;34.70;;;;;;5021045;28;114881;-82
2023/04/26 10:29:54;;;;;;;5.63;2.03;;;11.40;34.90;;;;;;4975106;28;114561;-83
2023/04/26 10:32:24;;;;;;;4.95;1.80;;;11.30;34.60;;;;;;4958380;28;114373;-82
2023/04/26 10:35:11;;;;;;;8.05;2.03;;;11.20;35.30;;;;;;4984477;28;114980;-82
2023/04/26 10:44:48;;;;;;;5.40;1.77;;;11.40;34.60;;;;;;4943476;28;116194;-82
2023/04/26 10:47:37;;;;;;;7.85;2.13;;;11.40;33.90;;;;;;4950117;28;117014;-81
2023/04/26 10:50:16;;;;;;;8.68;1.63;;;11.40;33.20;;;;;;4961840;28;114764;-82
2023/04/26 10:53:05;;;;;;;3.38;1.30;;;11.40;33.10;;;;;;4949354;28;114396;-81
2023/04/26 10:55:38;;;;;;;5.50;1.55;;;11.50;32.80;;;;;;5002854;28;114424;-83
2023/04/26 10:58:29;;;;;;;5.68;1.63;;;11.50;32.80;;;;;;4999317;28;115012;-81
2023/04/26 11:01:12;;;;;;;2.90;1.48;;;11.50;32.80;;;;;;5032903;27;116954;-81
2023/04/26 11:04:15;;;;;;;4.90;1.33;;;11.40;32.90;;;;;;5030978;27;114624;-81
2023/04/26 11:07:10;;;;;;;5.35;2.30;;;11.50;33.90;;;;;;5033265;27;114685;-82
2023/04/26 11:09:52;;;;;;;6.88;2.00;;;11.50;33.40;;;;;;5017277;27;115538;-81
2023/04/26 11:12:46;;;;;;;9.52;2.28;;;11.40;33.40;;;;;;5045667;27;116633;-82
2023/04/26 11:15:17;;;;;;;5.88;1.88;;;11.40;33.50;;;;;;5029126;27;115326;-83
2023/04/26 11:17:45;;;;;;;6.38;1.70;;;11.50;33.30;;;;;;5076289;27;114751;-83
2023/04/26 11:20:32;;;;;;;4.28;1.80;;;11.50;32.60;;;;;;5080464;27;114951;-83
2023/04/26 11:23:06;;;;;;;6.78;1.65;;;11.60;32.00;;;;;;5079252;27;117599;-81
2023/04/26 11:26:21;;;;;;;2.53;1.10;;;11.70;32.10;;;;;;5015064;27;114835;-82
2023/04/26 11:28:56;;;;;;;5.97;1.60;;;11.80;31.20;;;;;;5027625;27;115088;-82
2023/04/26 11:31:32;;;;;;;4.00;1.77;;;11.90;32.20;;;;;;5059867;27;115363;-82
2023/04/26 11:34:04;;;;;;;5.78;1.35;;;12.00;31.50;;;;;;5049655;27;116874;-82
2023/04/26 11:36:31;;;;;;;4.80;1.75;;;12.20;31.40;;;;;;5083353;27;114559;-81
2023/04/26 11:39:01;;;;;;;5.00;2.10;;;12.30;31.80;;;;;;5051416;27;114839;-81
2023/04/26 11:41:28;;;;;;;4.55;1.42;;;12.60;31.80;;;;;;5066691;27;118160;-81
2023/04/26 11:43:55;;;;;;;5.90;1.85;;;12.70;31.80;;;;;;5070602;27;115993;-81
2023/04/26 11:46:23;;;;;;;5.55;1.80;;;12.80;31.80;;;;;;5047055;27;114536;-82
2023/04/26 11:48:51;;;;;;;5.80;1.50;;;12.90;31.10;;;;;;5031989;27;114589;-81
2023/04/26 11:51:18;;;;;;;5.68;1.70;;;12.70;30.20;;;;;;5055764;27;115542;-82
2023/04/26 11:53:45;;;;;;;4.63;1.50;;;12.40;30.10;;;;;;5055287;27;114797;-82
2023/04/26 11:56:20;;;;;;;5.90;1.60;;;12.20;30.70;;;;;;5068267;27;114597;-80
2023/04/26 11:58:49;;;;;;;8.13;1.73;;;12.20;31.20;;;;;;5047746;27;114435;-82
2023/04/26 12:01:24;;;;;;;6.65;1.77;;;12.10;31.20;;;;;;5046165;27;114875;-82
2023/04/26 12:03:56;;;;;;;7.13;1.67;;;12.00;31.60;;;;;;5061036;27;114909;-82
2023/04/26 12:06:33;;;;;;;5.82;1.95;;;11.90;32.10;;;;;;5050323;27;114872;-83
2023/04/26 12:09:01;;;;;;;6.63;1.85;;;12.00;32.70;;;;;;5083805;27;114571;-82
2023/04/26 12:11:29;;;;;;;6.03;1.75;;;12.20;32.50;;;;;;5073120;27;115627;-81
2023/04/26 12:13:58;;;;;;;5.35;2.00;;;12.40;32.30;;;;;;5067218;27;114689;-82
2023/04/26 12:16:25;;;;;;;5.50;1.65;;;12.40;32.00;;;;;;5069021;27;114628;-81
2023/04/26 12:18:55;;;;;;;4.88;1.55;;;12.30;32.20;;;;;;5084396;27;114475;-81
2023/04/26 12:21:23;;;;;;;5.03;1.45;;;12.30;32.10;;;;;;5060568;27;114956;-81
2023/04/26 12:23:51;;;;;;;4.38;1.50;;;12.40;32.30;;;;;;5072780;27;118009;-81
2023/04/26 12:26:19;;;;;;;4.90;1.85;;;12.40;32.40;;;;;;5088551;27;114943;-82
2023/04/26 12:28:46;;;;;;;3.45;1.30;;;12.40;32.80;;;;;;5088374;27;114583;-81
2023/04/26 12:31:13;;;;;;;5.80;1.90;;;12.50;32.70;;;;;;5086653;27;114962;-82
2023/04/26 12:33:41;;;;;;;5.00;1.60;;;12.50;32.60;;;;;;5087906;27;115060;-81
2023/04/26 12:36:09;;;;;;;4.05;1.40;;;12.50;32.00;;;;;;5084149;27;114377;-82
2023/04/26 12:38:37;;;;;;;4.35;1.27;;;12.30;31.90;;;;;;5088776;27;114653;-82
2023/04/26 12:41:04;;;;;;;4.72;1.13;;;12.20;31.50;;;;;;5066968;27;114817;-82
2023/04/26 12:43:31;;;;;;;5.18;1.60;;;12.20;32.00;;;;;;5069968;27;117644;-82
2023/04/26 12:45:59;;;;;;;5.75;1.70;;;12.20;31.90;;;;;;5075062;27;114668;-82
2023/04/26 12:48:27;;;;;;;5.20;1.27;;;12.20;31.60;;;;;;5069594;27;114603;-82
2023/04/26 12:50:55;;;;;;;4.82;1.45;;;12.20;31.70;;;;;;5048919;27;114821;-81
2023/04/26 12:53:23;;;;;;;6.47;1.40;;;12.20;31.80;;;;;;5064877;27;114687;-81
2023/04/26 12:55:53;;;;;;;5.97;1.23;;;12.10;31.90;;;;;;5065566;27;114396;-81
2023/04/26 12:58:21;;;;;;;4.97;1.30;;;12.10;32.20;;;;;;5067041;27;114500;-82